createdAt,value
2019-05-09T00:00:33.537Z,13.00
2019-05-09T00:03:03.504Z,12.60
2019-05-09T00:05:33.564Z,12.90
2019-05-09T00:08:03.516Z,13.00
2019-05-09T00:10:39.426Z,13.00
2019-05-09T00:13:03.443Z,12.90
2019-05-09T00:15:33.218Z,12.90
2019-05-09T00:18:03.921Z,12.80
2019-05-09T00:20:44.185Z,12.80
2019-05-09T00:23:13.526Z,12.80
2019-05-09T00:25:43.307Z,12.70
2019-05-09T00:28:13.458Z,12.70
2019-05-09T00:30:59.110Z,12.60
2019-05-09T00:33:29.307Z,12.60
2019-05-09T00:35:57.810Z,12.50
2019-05-09T00:38:33.356Z,12.50
2019-05-09T00:41:03.827Z,12.50
2019-05-09T00:43:34.177Z,12.40
2019-05-09T00:46:18.465Z,12.40
2019-05-09T00:48:54.421Z,12.30
2019-05-09T00:51:23.400Z,12.20
2019-05-09T00:53:53.643Z,12.20
2019-05-09T00:56:23.918Z,12.10
2019-05-09T00:58:53.582Z,12.00
2019-05-09T01:01:23.950Z,12.00
2019-05-09T01:03:53.592Z,11.90
2019-05-09T01:06:23.910Z,11.90
2019-05-09T01:08:53.605Z,11.80
2019-05-09T01:11:24.228Z,11.80
2019-05-09T01:13:54.312Z,11.80
2019-05-09T01:16:24.222Z,11.80
2019-05-09T01:18:54.357Z,11.80
2019-05-09T01:21:24.003Z,11.70
2019-05-09T01:23:53.900Z,11.60
2019-05-09T01:26:24.003Z,11.70
2019-05-09T01:28:53.970Z,11.50
2019-05-09T01:31:24.028Z,11.50
2019-05-09T01:34:15.040Z,11.50
2019-05-09T01:37:03.461Z,11.40
2019-05-09T01:39:33.620Z,11.30
2019-05-09T01:42:03.275Z,11.40
2019-05-09T01:44:33.490Z,11.30
2019-05-09T01:47:03.778Z,11.30
2019-05-09T01:49:34.218Z,11.20
2019-05-09T01:52:03.514Z,11.20
2019-05-09T01:54:33.426Z,11.30
2019-05-09T01:57:03.376Z,11.20
2019-05-09T01:59:33.989Z,11.30
2019-05-09T02:02:08.307Z,11.20
2019-05-09T02:04:33.563Z,11.20
2019-05-09T02:07:04.186Z,11.20
2019-05-09T02:09:34.237Z,11.20
2019-05-09T02:12:03.834Z,11.10
2019-05-09T02:14:46.670Z,11.00
2019-05-09T02:17:33.505Z,11.00
2019-05-09T02:20:04.001Z,11.10
2019-05-09T02:22:35.674Z,11.00
2019-05-09T02:25:06.046Z,11.10
2019-05-09T02:27:34.961Z,11.10
2019-05-09T02:30:05.813Z,11.00
2019-05-09T02:32:34.884Z,10.90
2019-05-09T02:35:04.959Z,11.00
2019-05-09T02:37:33.915Z,10.90
2019-05-09T02:40:02.509Z,10.90
2019-05-09T02:42:31.018Z,10.90
2019-05-09T02:44:59.641Z,10.90
2019-05-09T02:47:28.993Z,10.90
2019-05-09T02:49:58.936Z,10.90
2019-05-09T02:56:09.385Z,10.80
2019-05-09T02:58:55.190Z,10.60
2019-05-09T03:01:49.496Z,10.60
2019-05-09T03:04:18.870Z,10.50
2019-05-09T03:06:49.199Z,10.40
2019-05-09T03:09:19.288Z,10.50
2019-05-09T03:11:48.692Z,10.40
2019-05-09T03:14:19.543Z,10.30
2019-05-09T03:16:49.124Z,10.30
2019-05-09T03:19:19.483Z,10.30
2019-05-09T03:22:10.731Z,10.30
2019-05-09T03:24:39.568Z,10.20
2019-05-09T03:27:14.090Z,10.20
2019-05-09T03:29:55.161Z,10.20
2019-05-09T03:32:23.610Z,10.20
2019-05-09T03:34:52.053Z,10.20
2019-05-09T03:37:20.617Z,10.20
2019-05-09T03:39:49.085Z,10.30
2019-05-09T03:42:21.225Z,10.20
2019-05-09T03:44:47.864Z,10.30
2019-05-09T03:47:34.725Z,10.30
2019-05-09T03:50:28.612Z,10.20
2019-05-09T03:52:57.975Z,10.20
2019-05-09T03:55:33.420Z,10.10
2019-05-09T03:58:09.240Z,10.00
2019-05-09T04:00:37.677Z,10.00
2019-05-09T04:03:08.092Z,9.90
2019-05-09T04:05:37.644Z,9.90
2019-05-09T04:08:19.399Z,9.80
2019-05-09T04:10:50.297Z,9.80
2019-05-09T04:13:20.707Z,9.80
2019-05-09T04:15:49.154Z,9.70
2019-05-09T04:18:17.789Z,9.70
2019-05-09T04:20:48.246Z,9.70
2019-05-09T04:23:18.547Z,9.80
2019-05-09T04:26:07.584Z,9.90
2019-05-09T04:28:39.658Z,9.90
2019-05-09T04:31:07.459Z,10.00
2019-05-09T04:33:38.173Z,10.00
2019-05-09T04:36:08.205Z,10.00
2019-05-09T04:38:39.730Z,10.00
2019-05-09T04:41:07.525Z,10.00
2019-05-09T04:43:39.687Z,10.20
2019-05-09T04:46:13.001Z,10.10
2019-05-09T04:48:38.768Z,10.20
2019-05-09T04:51:08.061Z,10.20
2019-05-09T04:53:37.706Z,10.30
2019-05-09T04:56:21.749Z,10.40
2019-05-09T04:58:50.301Z,10.40
2019-05-09T05:01:38.936Z,10.50
2019-05-09T05:04:07.771Z,10.50
2019-05-09T05:06:40.327Z,10.60
2019-05-09T05:09:07.868Z,10.60
2019-05-09T05:11:38.135Z,10.60
2019-05-09T05:14:09.109Z,10.70
2019-05-09T05:16:39.193Z,10.80
2019-05-09T05:19:07.646Z,10.90
2019-05-09T05:21:37.844Z,11.00
2019-05-09T05:24:18.597Z,11.10
2019-05-09T05:26:48.444Z,11.10
2019-05-09T05:29:17.835Z,11.20
2019-05-09T05:31:47.754Z,11.30
2019-05-09T05:34:22.853Z,11.40
2019-05-09T05:36:51.285Z,11.50
2019-05-09T05:39:19.773Z,11.60
2019-05-09T05:41:48.525Z,11.70
2019-05-09T05:44:17.818Z,11.80
2019-05-09T05:47:07.695Z,12.00
2019-05-09T05:49:38.332Z,12.10
2019-05-09T05:52:08.095Z,12.20
2019-05-09T05:54:37.858Z,12.30
2019-05-09T05:57:08.384Z,12.40
2019-05-09T05:59:40.809Z,12.60
2019-05-09T06:02:08.769Z,12.80
2019-05-09T06:04:38.314Z,13.10
2019-05-09T06:07:08.017Z,13.30
2019-05-09T06:09:37.871Z,13.70
2019-05-09T06:12:08.286Z,13.90
2019-05-09T06:14:37.804Z,14.30
2019-05-09T06:17:08.032Z,14.60
2019-05-09T06:19:37.877Z,14.80
2019-05-09T06:22:08.181Z,14.80
2019-05-09T06:24:38.777Z,14.80
2019-05-09T06:27:10.121Z,14.60
2019-05-09T06:29:38.958Z,14.50
2019-05-09T06:32:08.004Z,14.40
2019-05-09T06:34:41.681Z,14.30
2019-05-09T06:37:08.921Z,14.20
2019-05-09T06:39:38.183Z,14.10
2019-05-09T06:42:09.021Z,14.10
2019-05-09T06:44:58.422Z,14.00
2019-05-09T06:47:30.753Z,14.00
2019-05-09T06:50:00.857Z,13.90
2019-05-09T06:52:29.305Z,14.10
2019-05-09T06:54:58.356Z,14.50
2019-05-09T06:57:28.069Z,14.80
2019-05-09T06:59:58.077Z,15.10
2019-05-09T07:02:38.932Z,15.60
2019-05-09T07:05:39.208Z,16.10
2019-05-09T07:08:38.996Z,16.60
2019-05-09T07:11:07.688Z,17.00
2019-05-09T07:13:38.084Z,17.50
2019-05-09T07:16:08.842Z,17.80
2019-05-09T07:18:38.272Z,18.20
2019-05-09T07:21:08.210Z,18.60
2019-05-09T07:23:37.424Z,19.00
2019-05-09T07:26:14.349Z,19.30
2019-05-09T07:28:43.093Z,19.50
2019-05-09T07:31:37.720Z,19.70
2019-05-09T07:34:23.219Z,19.80
2019-05-09T07:37:08.333Z,19.80
2019-05-09T07:39:37.946Z,20.10
2019-05-09T07:42:07.676Z,20.30
2019-05-09T07:44:46.237Z,20.60
2019-05-09T07:47:07.689Z,20.70
2019-05-09T07:49:37.718Z,21.00
2019-05-09T07:52:10.127Z,21.00
2019-05-09T07:54:38.075Z,21.00
2019-05-09T07:57:08.591Z,21.00
2019-05-09T07:59:38.929Z,20.90
2019-05-09T08:02:08.735Z,20.80
2019-05-09T08:04:38.602Z,20.70
2019-05-09T08:07:08.358Z,20.50
2019-05-09T08:09:38.703Z,20.50
2019-05-09T08:12:07.542Z,20.30
2019-05-09T08:14:37.760Z,20.20
2019-05-09T08:17:08.386Z,20.10
2019-05-09T08:19:38.021Z,20.10
2019-05-09T08:22:08.033Z,20.00
2019-05-09T08:24:38.061Z,19.80
2019-05-09T08:27:08.581Z,19.60
2019-05-09T08:29:38.729Z,19.70
2019-05-09T08:32:07.567Z,19.70
2019-05-09T08:34:37.821Z,19.70
2019-05-09T08:37:08.203Z,19.80
2019-05-09T08:39:38.237Z,19.70
2019-05-09T08:42:08.603Z,19.60
2019-05-09T08:44:38.276Z,19.60
2019-05-09T08:47:07.939Z,19.60
2019-05-09T08:49:52.906Z,19.60
2019-05-09T08:52:21.349Z,19.60
2019-05-09T08:54:53.022Z,19.30
2019-05-09T08:57:21.474Z,19.50
2019-05-09T08:59:50.955Z,19.50
2019-05-09T09:02:22.350Z,19.50
2019-05-09T09:04:50.498Z,19.50
2019-05-09T09:07:19.211Z,19.50
2019-05-09T09:09:48.376Z,19.80
2019-05-09T09:12:27.330Z,19.80
2019-05-09T09:14:47.983Z,20.00
2019-05-09T09:17:18.806Z,20.30
2019-05-09T09:19:47.858Z,20.60
2019-05-09T09:22:17.976Z,20.90
2019-05-09T09:24:48.166Z,21.10
2019-05-09T09:27:18.219Z,21.20
2019-05-09T09:29:48.118Z,21.10
2019-05-09T09:32:19.015Z,21.30
2019-05-09T09:34:48.501Z,21.60
2019-05-09T09:37:18.481Z,21.30
2019-05-09T09:39:48.822Z,21.00
2019-05-09T09:42:19.847Z,20.80
2019-05-09T09:44:48.152Z,20.60
2019-05-09T09:47:22.308Z,20.70
2019-05-09T09:49:49.109Z,20.70
2019-05-09T09:52:18.742Z,20.90
2019-05-09T09:54:48.183Z,21.10
2019-05-09T09:57:18.991Z,21.10
2019-05-09T09:59:53.688Z,21.30
2019-05-09T10:02:27.986Z,21.50
2019-05-09T10:04:56.521Z,21.60
2019-05-09T10:07:24.963Z,21.50
2019-05-09T10:09:53.477Z,21.30
2019-05-09T10:12:22.569Z,21.10
2019-05-09T10:14:57.938Z,21.10
2019-05-09T10:17:49.012Z,21.30
2019-05-09T10:20:25.081Z,21.50
2019-05-09T10:23:00.233Z,21.80
2019-05-09T10:25:23.941Z,21.90
2019-05-09T10:27:58.094Z,21.90
2019-05-09T10:30:34.030Z,21.60
2019-05-09T10:33:02.559Z,21.40
2019-05-09T10:35:30.994Z,21.10
2019-05-09T10:37:59.494Z,20.90
2019-05-09T10:40:28.178Z,20.60
2019-05-09T10:43:04.912Z,20.50
2019-05-09T10:45:52.693Z,20.40
2019-05-09T10:48:23.968Z,20.10
2019-05-09T10:50:53.917Z,20.10
2019-05-09T10:53:21.824Z,20.10
2019-05-09T10:55:50.290Z,20.30
2019-05-09T10:58:20.175Z,20.50
2019-05-09T11:00:49.025Z,20.50
2019-05-09T11:03:18.021Z,20.70
2019-05-09T11:05:46.670Z,21.10
2019-05-09T11:08:18.320Z,21.40
2019-05-09T11:10:47.480Z,21.60
2019-05-09T11:13:18.136Z,21.40
2019-05-09T11:15:47.970Z,21.30
2019-05-09T11:18:18.510Z,21.30
2019-05-09T11:20:46.967Z,21.20
2019-05-09T11:23:15.481Z,21.10
2019-05-09T11:25:43.942Z,21.20
2019-05-09T11:28:15.185Z,21.40
2019-05-09T11:30:43.189Z,21.60
2019-05-09T11:33:11.710Z,21.80
2019-05-09T11:35:40.142Z,21.90
2019-05-09T11:38:08.650Z,21.80
2019-05-09T11:40:37.804Z,22.00
2019-05-09T11:43:06.841Z,22.10
2019-05-09T11:45:35.950Z,22.20
2019-05-09T11:48:04.525Z,22.40
2019-05-09T11:50:33.407Z,22.30
2019-05-09T11:53:02.106Z,22.40
2019-05-09T11:55:36.053Z,22.60
2019-05-09T11:58:02.278Z,22.60
2019-05-09T12:00:30.939Z,22.70
2019-05-09T12:02:59.551Z,22.80
2019-05-09T12:05:28.798Z,22.80
2019-05-09T12:07:58.118Z,22.70
2019-05-09T12:10:28.559Z,22.60
2019-05-09T12:12:57.723Z,22.60
2019-05-09T12:15:29.034Z,22.70
2019-05-09T12:18:02.305Z,22.90
2019-05-09T12:20:28.850Z,22.80
2019-05-09T12:22:58.408Z,22.80
2019-05-09T12:25:28.340Z,22.70
2019-05-09T12:27:58.408Z,22.60
2019-05-09T12:30:28.472Z,22.50
2019-05-09T12:32:58.981Z,22.40
2019-05-09T12:35:27.452Z,22.30
2019-05-09T12:37:55.913Z,22.30
2019-05-09T12:40:24.424Z,22.30
2019-05-09T12:42:52.920Z,22.30
2019-05-09T12:45:21.532Z,22.40
2019-05-09T12:48:05.181Z,22.50
2019-05-09T12:50:20.289Z,22.60
2019-05-09T12:52:48.890Z,22.60
2019-05-09T12:55:17.872Z,22.50
2019-05-09T12:57:48.688Z,22.40
2019-05-09T13:00:18.692Z,22.30
2019-05-09T13:02:47.219Z,22.10
2019-05-09T13:05:17.922Z,21.90
2019-05-09T13:07:48.093Z,21.90
2019-05-09T13:10:19.457Z,21.80
2019-05-09T13:12:48.393Z,21.80
2019-05-09T13:15:20.775Z,21.70
2019-05-09T13:17:50.087Z,21.70
2019-05-09T13:20:19.091Z,21.80
2019-05-09T13:22:47.829Z,21.90
2019-05-09T13:25:18.674Z,21.80
2019-05-09T13:27:47.845Z,21.80
2019-05-09T13:30:18.963Z,21.90
2019-05-09T13:32:48.355Z,21.90
2019-05-09T13:35:19.970Z,21.90
2019-05-09T13:37:49.131Z,21.80
2019-05-09T13:40:19.071Z,21.70
2019-05-09T13:42:49.000Z,21.60
2019-05-09T13:45:18.642Z,21.60
2019-05-09T13:47:48.413Z,21.50
2019-05-09T13:50:18.609Z,21.40
2019-05-09T13:52:47.999Z,21.40
2019-05-09T13:55:17.832Z,21.30
2019-05-09T13:57:48.624Z,21.30
2019-05-09T14:00:18.459Z,21.30
2019-05-09T14:02:48.884Z,21.20
2019-05-09T14:05:19.117Z,21.20
2019-05-09T14:07:49.223Z,21.10
2019-05-09T14:10:18.790Z,21.10
2019-05-09T14:13:04.881Z,21.10
2019-05-09T14:15:18.597Z,21.00
2019-05-09T14:17:53.106Z,21.10
2019-05-09T14:20:19.195Z,21.10
2019-05-09T14:22:48.996Z,21.20
2019-05-09T14:25:19.600Z,21.30
2019-05-09T14:27:49.706Z,21.30
2019-05-09T14:30:19.786Z,21.30
2019-05-09T14:32:49.784Z,21.40
2019-05-09T14:35:18.650Z,21.30
2019-05-09T14:37:48.793Z,21.40
2019-05-09T14:40:18.004Z,21.50
2019-05-09T14:42:46.502Z,21.70
2019-05-09T14:45:14.934Z,21.80
2019-05-09T14:47:43.476Z,22.00
2019-05-09T14:50:11.925Z,22.10
2019-05-09T14:52:40.428Z,22.20
2019-05-09T14:55:08.986Z,22.30
2019-05-09T14:57:38.394Z,22.30
2019-05-09T15:00:08.277Z,22.30
2019-05-09T15:02:38.909Z,22.40
2019-05-09T15:05:09.462Z,22.40
2019-05-09T15:07:39.131Z,22.40
2019-05-09T15:10:08.678Z,22.30
2019-05-09T15:12:39.013Z,22.40
2019-05-09T15:15:09.717Z,22.40
2019-05-09T15:17:38.233Z,22.40
2019-05-09T15:20:08.786Z,22.30
2019-05-09T15:22:38.643Z,22.20
2019-05-09T15:25:08.767Z,22.20
2019-05-09T15:27:38.439Z,22.20
2019-05-09T15:30:07.669Z,22.20
2019-05-09T15:32:37.759Z,22.20
2019-05-09T15:35:08.835Z,22.20
2019-05-09T15:37:38.514Z,22.10
2019-05-09T15:40:08.650Z,22.10
2019-05-09T15:42:38.959Z,22.00
2019-05-09T15:45:08.571Z,22.00
2019-05-09T15:47:38.048Z,21.90
2019-05-09T15:50:16.581Z,21.80
2019-05-09T15:52:38.387Z,21.80
2019-05-09T15:55:09.446Z,21.80
2019-05-09T15:57:37.937Z,21.80
2019-05-09T16:00:08.340Z,21.80
2019-05-09T16:02:39.060Z,21.70
2019-05-09T16:05:10.547Z,21.70
2019-05-09T16:07:39.303Z,21.60
2019-05-09T16:10:08.602Z,21.60
2019-05-09T16:12:38.357Z,21.50
2019-05-09T16:15:07.813Z,21.40
2019-05-09T16:17:39.367Z,21.40
2019-05-09T16:20:08.459Z,21.40
2019-05-09T16:22:39.261Z,21.30
2019-05-09T16:25:07.734Z,21.20
2019-05-09T16:27:37.985Z,21.20
2019-05-09T16:30:08.411Z,21.10
2019-05-09T16:32:37.838Z,20.90
2019-05-09T16:35:07.970Z,20.90
2019-05-09T16:37:57.327Z,20.90
2019-05-09T16:40:08.469Z,20.80
2019-05-09T16:42:38.190Z,20.90
2019-05-09T16:45:08.152Z,20.80
2019-05-09T16:47:36.771Z,20.80
2019-05-09T16:50:07.878Z,20.80
2019-05-09T16:52:43.086Z,20.80
2019-05-09T16:55:11.600Z,20.80
2019-05-09T16:57:40.112Z,20.70
2019-05-09T17:00:10.786Z,20.70
2019-05-09T17:02:39.277Z,20.60
2019-05-09T17:05:08.380Z,20.60
2019-05-09T17:07:38.398Z,20.60
2019-05-09T17:10:08.337Z,20.60
2019-05-09T17:12:37.409Z,20.50
2019-05-09T17:15:08.496Z,20.40
2019-05-09T17:17:38.472Z,20.40
2019-05-09T17:20:09.458Z,20.40
2019-05-09T17:23:09.998Z,20.40
2019-05-09T17:25:28.217Z,20.40
2019-05-09T17:27:59.295Z,20.30
2019-05-09T17:30:28.615Z,20.30
2019-05-09T17:32:58.487Z,20.30
2019-05-09T17:35:27.924Z,20.20
2019-05-09T17:37:56.850Z,20.20
2019-05-09T17:40:27.653Z,20.20
2019-05-09T17:42:55.594Z,20.20
2019-05-09T17:45:24.539Z,20.20
2019-05-09T17:47:52.996Z,20.10
2019-05-09T17:50:21.971Z,20.10
2019-05-09T17:52:50.402Z,20.00
2019-05-09T17:55:18.918Z,20.00
2019-05-09T17:57:47.972Z,19.90
2019-05-09T18:00:21.763Z,19.90
2019-05-09T18:02:48.656Z,19.80
2019-05-09T18:05:17.421Z,19.70
2019-05-09T18:07:47.914Z,19.70
2019-05-09T18:10:18.449Z,19.60
2019-05-09T18:12:47.966Z,19.60
2019-05-09T18:15:18.645Z,19.60
2019-05-09T18:17:48.096Z,19.50
2019-05-09T18:20:17.709Z,19.30
2019-05-09T18:22:47.902Z,19.10
2019-05-09T18:25:18.774Z,19.00
2019-05-09T18:27:48.793Z,18.90
2019-05-09T18:30:19.062Z,18.80
2019-05-09T18:33:07.525Z,18.60
2019-05-09T18:35:38.030Z,18.50
2019-05-09T18:38:07.925Z,18.40
2019-05-09T18:40:36.989Z,18.30
2019-05-09T18:43:07.720Z,18.20
2019-05-09T18:45:37.612Z,18.10
2019-05-09T18:48:08.279Z,18.10
2019-05-09T18:50:36.833Z,18.00
2019-05-09T18:53:05.824Z,17.90
2019-05-09T18:55:36.977Z,17.90
2019-05-09T18:58:07.490Z,17.80
2019-05-09T19:00:37.847Z,17.70
2019-05-09T19:03:08.427Z,17.60
2019-05-09T19:05:38.326Z,17.50
2019-05-09T19:08:08.055Z,17.50
2019-05-09T19:10:37.919Z,17.50
2019-05-09T19:13:07.761Z,17.50
2019-05-09T19:15:59.546Z,17.50
2019-05-09T19:18:51.976Z,17.40
2019-05-09T19:21:31.093Z,17.30
2019-05-09T19:24:00.797Z,17.30
2019-05-09T19:26:36.631Z,17.20
2019-05-09T19:29:08.426Z,17.20
2019-05-09T19:31:38.912Z,17.20
2019-05-09T19:34:09.701Z,17.20
2019-05-09T19:36:39.490Z,17.10
2019-05-09T19:39:10.281Z,17.10
2019-05-09T19:41:40.405Z,17.00
2019-05-09T19:44:10.061Z,17.00
2019-05-09T19:46:40.022Z,17.00
2019-05-09T19:49:11.016Z,16.90
2019-05-09T19:51:41.200Z,16.80
2019-05-09T19:54:11.160Z,16.80
2019-05-09T19:56:42.472Z,16.80
2019-05-09T19:59:12.667Z,16.80
2019-05-09T20:01:43.329Z,16.80
2019-05-09T20:04:13.386Z,16.80
2019-05-09T20:06:46.508Z,16.80
2019-05-09T20:09:31.193Z,16.80
2019-05-09T20:12:27.381Z,16.80
2019-05-09T20:14:57.638Z,16.70
2019-05-09T20:17:27.798Z,16.60
2019-05-09T20:19:57.656Z,16.60
2019-05-09T20:22:27.318Z,16.60
2019-05-09T20:24:57.834Z,16.50
2019-05-09T20:27:27.506Z,16.40
2019-05-09T20:29:57.511Z,16.40
2019-05-09T20:32:28.648Z,16.40
2019-05-09T20:34:58.403Z,16.40
2019-05-09T20:37:29.167Z,16.30
2019-05-09T20:39:59.043Z,16.30
2019-05-09T20:42:28.626Z,16.20
2019-05-09T20:44:59.095Z,16.20
2019-05-09T20:47:28.171Z,16.20
2019-05-09T20:49:57.387Z,16.10
2019-05-09T20:52:26.365Z,16.20
2019-05-09T20:54:55.386Z,16.30
2019-05-09T20:57:23.921Z,16.30
2019-05-09T20:59:52.426Z,16.30
2019-05-09T21:02:20.885Z,16.30
2019-05-09T21:04:49.383Z,16.20
2019-05-09T21:07:17.818Z,16.20
2019-05-09T21:09:46.325Z,16.30
2019-05-09T21:12:14.761Z,16.20
2019-05-09T21:14:43.434Z,16.20
2019-05-09T21:17:11.870Z,16.10
2019-05-09T21:19:40.377Z,16.10
2019-05-09T21:22:08.830Z,16.10
2019-05-09T21:24:37.331Z,16.00
2019-05-09T21:27:06.286Z,15.90
2019-05-09T21:29:35.166Z,15.90
2019-05-09T21:32:04.104Z,16.00
2019-05-09T21:34:32.628Z,15.90
2019-05-09T21:37:01.663Z,15.90
2019-05-09T21:39:30.163Z,15.90
2019-05-09T21:41:58.594Z,15.90
2019-05-09T21:44:27.098Z,15.80
2019-05-09T21:46:55.530Z,15.90
2019-05-09T21:49:24.045Z,15.90
2019-05-09T21:51:52.547Z,15.80
2019-05-09T21:54:21.009Z,15.80
2019-05-09T21:56:49.508Z,15.80
2019-05-09T21:59:17.965Z,15.70
2019-05-09T22:01:47.049Z,15.80
2019-05-09T22:04:15.515Z,15.80
2019-05-09T22:06:44.021Z,15.90
2019-05-09T22:09:12.467Z,15.90
2019-05-09T22:11:40.944Z,15.80
2019-05-09T22:14:09.870Z,15.90
2019-05-09T22:16:38.550Z,15.80
2019-05-09T22:19:07.007Z,15.80
2019-05-09T22:21:35.485Z,15.80
2019-05-09T22:24:03.933Z,15.80
2019-05-09T22:26:32.548Z,15.80
2019-05-09T22:29:00.994Z,15.80
2019-05-09T22:31:29.601Z,15.70
2019-05-09T22:33:58.040Z,15.80
2019-05-09T22:36:26.570Z,15.80
2019-05-09T22:38:55.429Z,15.70
2019-05-09T22:41:23.925Z,15.70
2019-05-09T22:43:53.088Z,15.70
2019-05-09T22:46:21.588Z,15.70
2019-05-09T22:48:50.034Z,15.80
2019-05-09T22:51:18.534Z,15.70
2019-05-09T22:53:46.976Z,15.70
2019-05-09T22:56:15.829Z,15.70
2019-05-09T22:58:44.702Z,15.70
2019-05-09T23:01:13.215Z,15.80
2019-05-09T23:03:41.664Z,15.70
2019-05-09T23:06:10.160Z,15.70
2019-05-09T23:08:38.608Z,15.80
2019-05-09T23:11:07.046Z,15.80
2019-05-09T23:13:51.679Z,15.70
2019-05-09T23:16:21.737Z,15.70
2019-05-09T23:18:50.278Z,15.70
2019-05-09T23:21:18.828Z,15.70
2019-05-09T23:23:57.071Z,15.70
2019-05-09T23:26:25.697Z,15.80
2019-05-09T23:28:54.307Z,15.80
2019-05-09T23:31:46.301Z,15.80
2019-05-09T23:34:14.753Z,15.80
2019-05-09T23:36:44.271Z,15.80
2019-05-09T23:39:24.436Z,15.80
2019-05-09T23:41:53.034Z,15.80
2019-05-09T23:44:21.479Z,15.80
2019-05-09T23:46:49.926Z,15.80
2019-05-09T23:49:18.433Z,15.80
2019-05-09T23:51:47.664Z,15.70
2019-05-09T23:54:46.012Z,15.70
2019-05-09T23:57:24.746Z,15.70
